Etusivu
METAR-TAF:

METAR-TAF

Lentoasemat :

Sotilaslentoasema

Niederstetten, Saksa

Leveyspiiri: 49-24N, Pituuspiiri: 009-58E, korkeus merenpinnasta: 468 m

Tämänhetkinen sää

Tämä raportti tehtiin 20 minuuttia sitten, kello 20.20 UTC
Tuuli 3 kn koillisesta
Lämpötila 16°C
Kosteus 59%
Ilmanpaine 1020 hPa
Näkyvyys 10 km tai enemmän
Hajonneita pilviä 12000 ft:n korkeudessa

METAR: ETHN 162020Z 04003KT 9999 BKN120 16/08 Q1020 BLU

Aika: 22:40 (20:40 UTC)

Sääennuste

Tämä raportti tehtiin 6 tuntia ja 9 minuuttia sitten, kello 14.31 UTC
Ennuste voimassa 16. päivästä klo 14 UTC - 16. päivään klo 23 UTC
Tuuli 4 kn pohjoisesta/koillisesta
Näkyvyys: 1500 m
Hajanaisia pilviä 13000 ft:n korkeudessa

TAF: ETHN 161431Z 1614/1623 03004KT 9999 NSW SCT130 CANCEL 1500

Säähavainnot ja -ennusteet yli 4000 lentoasemalta (METAR- ja TAF-raportit).

Käytössä olevat sääasemat on merkitty karttaan keltaisilla ja punaisilla pisteillä.

Aseta hiiri pisteen päälle nähdäksesi sääaseman nimen.

Klikkaa sitten nähdäksesi säähavainnot ja -ennusteet.

Kartan vaihtaminen: klikkaa mustalla rastilla varustettuja vihreitä pisteitä, niin voit zoomata sisään; viivalla varustettua vihreää pistettä, niin voit zoomata ulos tai vihreitä nuolia, niin pääset viereisille kartoille.


METAR-TAF: